sensor_id;sensor_type;location;lat;lon;timestamp;pressure;altitude;pressure_sealevel;temperature;humidity
73024;BME280;61199;47.526;8.538;2023-04-07T00:01:28;96498.81;;;11.85;48.22
73024;BME280;61199;47.526;8.538;2023-04-07T00:03:54;96498.81;;;11.85;47.97
73024;BME280;61199;47.526;8.538;2023-04-07T00:06:22;96498.81;;;11.85;48.11
73024;BME280;61199;47.526;8.538;2023-04-07T00:08:48;96499.66;;;11.85;48.06
73024;BME280;61199;47.526;8.538;2023-04-07T00:11:14;96497.41;;;11.90;48.04
73024;BME280;61199;47.526;8.538;2023-04-07T00:13:41;96496.91;;;11.87;48.25
73024;BME280;61199;47.526;8.538;2023-04-07T00:16:07;96495.22;;;11.86;48.51
73024;BME280;61199;47.526;8.538;2023-04-07T00:18:34;96485.25;;;11.89;48.55
73024;BME280;61199;47.526;8.538;2023-04-07T00:21:00;96489.41;;;11.92;48.42
73024;BME280;61199;47.526;8.538;2023-04-07T00:23:27;96478.78;;;11.93;48.05
73024;BME280;61199;47.526;8.538;2023-04-07T00:25:53;96471.03;;;11.92;48.22
73024;BME280;61199;47.526;8.538;2023-04-07T00:28:19;96468.13;;;11.95;48.28
73024;BME280;61199;47.526;8.538;2023-04-07T00:30:46;96469.50;;;11.99;48.25
73024;BME280;61199;47.526;8.538;2023-04-07T00:33:12;96470.19;;;12.01;48.16
73024;BME280;61199;47.526;8.538;2023-04-07T00:35:38;96457.75;;;12.03;47.73
73024;BME280;61199;47.526;8.538;2023-04-07T00:38:05;96451.50;;;12.04;48.13
73024;BME280;61199;47.526;8.538;2023-04-07T00:40:31;96446.00;;;12.07;48.11
73024;BME280;61199;47.526;8.538;2023-04-07T00:42:58;96439.09;;;12.06;48.20
73024;BME280;61199;47.526;8.538;2023-04-07T00:45:24;96441.00;;;12.04;48.22
73024;BME280;61199;47.526;8.538;2023-04-07T00:47:51;96430.69;;;12.02;48.18
73024;BME280;61199;47.526;8.538;2023-04-07T00:50:17;96432.22;;;11.95;48.11
73024;BME280;61199;47.526;8.538;2023-04-07T00:52:44;96428.47;;;11.98;48.08
73024;BME280;61199;47.526;8.538;2023-04-07T00:55:11;96434.00;;;11.95;48.52
73024;BME280;61199;47.526;8.538;2023-04-07T00:57:37;96425.56;;;12.01;48.61
73024;BME280;61199;47.526;8.538;2023-04-07T01:00:04;96419.75;;;11.97;48.38
73024;BME280;61199;47.526;8.538;2023-04-07T01:02:45;96416.47;;;11.95;48.20
73024;BME280;61199;47.526;8.538;2023-04-07T01:05:17;96412.72;;;11.98;47.84
73024;BME280;61199;47.526;8.538;2023-04-07T01:13:09;96415.66;;;11.85;48.11
73024;BME280;61199;47.526;8.538;2023-04-07T01:15:39;96414.25;;;11.91;48.04
73024;BME280;61199;47.526;8.538;2023-04-07T01:18:11;96410.13;;;11.88;48.20
73024;BME280;61199;47.526;8.538;2023-04-07T01:20:39;96405.72;;;11.89;48.50
73024;BME280;61199;47.526;8.538;2023-04-07T01:23:16;96404.06;;;11.88;48.48
73024;BME280;61199;47.526;8.538;2023-04-07T01:28:54;96404.38;;;11.75;49.13
73024;BME280;61199;47.526;8.538;2023-04-07T01:31:22;96406.88;;;11.68;49.82
73024;BME280;61199;47.526;8.538;2023-04-07T01:33:49;96410.47;;;11.57;49.42
73024;BME280;61199;47.526;8.538;2023-04-07T01:36:17;96405.47;;;11.63;48.93
73024;BME280;61199;47.526;8.538;2023-04-07T01:38:44;96399.00;;;11.58;49.11
73024;BME280;61199;47.526;8.538;2023-04-07T01:41:13;96405.47;;;11.54;48.96
73024;BME280;61199;47.526;8.538;2023-04-07T01:43:41;96409.78;;;11.46;49.59
73024;BME280;61199;47.526;8.538;2023-04-07T01:46:10;96410.22;;;11.41;49.87
73024;BME280;61199;47.526;8.538;2023-04-07T01:48:36;96401.94;;;11.46;49.77
73024;BME280;61199;47.526;8.538;2023-04-07T01:51:05;96401.09;;;11.45;49.71
73024;BME280;61199;47.526;8.538;2023-04-07T01:53:33;96401.63;;;11.39;50.23
73024;BME280;61199;47.526;8.538;2023-04-07T01:56:03;96393.63;;;11.41;50.67
73024;BME280;61199;47.526;8.538;2023-04-07T01:58:30;96390.47;;;11.47;50.24
73024;BME280;61199;47.526;8.538;2023-04-07T02:00:57;96395.84;;;11.45;50.38
73024;BME280;61199;47.526;8.538;2023-04-07T02:03:30;96390.59;;;11.45;49.78
73024;BME280;61199;47.526;8.538;2023-04-07T02:06:05;96385.91;;;11.39;50.10
73024;BME280;61199;47.526;8.538;2023-04-07T02:08:35;96376.78;;;11.43;49.98
73024;BME280;61199;47.526;8.538;2023-04-07T02:11:02;96380.38;;;11.42;50.02
73024;BME280;61199;47.526;8.538;2023-04-07T02:13:31;96382.47;;;11.39;50.33
73024;BME280;61199;47.526;8.538;2023-04-07T02:15:59;96381.19;;;11.43;50.37
73024;BME280;61199;47.526;8.538;2023-04-07T02:18:29;96365.47;;;11.43;50.31
73024;BME280;61199;47.526;8.538;2023-04-07T02:20:58;96369.19;;;11.40;50.26
73024;BME280;61199;47.526;8.538;2023-04-07T02:23:26;96365.50;;;11.33;50.49
73024;BME280;61199;47.526;8.538;2023-04-07T02:25:55;96358.19;;;11.37;50.84
73024;BME280;61199;47.526;8.538;2023-04-07T02:28:22;96352.78;;;11.38;50.97
73024;BME280;61199;47.526;8.538;2023-04-07T02:30:49;96356.06;;;11.40;51.25
73024;BME280;61199;47.526;8.538;2023-04-07T02:33:15;96353.88;;;11.36;51.60
73024;BME280;61199;47.526;8.538;2023-04-07T02:35:41;96342.88;;;11.32;51.41
73024;BME280;61199;47.526;8.538;2023-04-07T02:38:08;96343.38;;;11.36;51.14
73024;BME280;61199;47.526;8.538;2023-04-07T02:40:34;96340.38;;;11.31;50.92
73024;BME280;61199;47.526;8.538;2023-04-07T02:43:02;96338.31;;;11.34;50.51
73024;BME280;61199;47.526;8.538;2023-04-07T02:45:30;96333.75;;;11.36;49.98
73024;BME280;61199;47.526;8.538;2023-04-07T02:47:56;96328.63;;;11.35;50.02
73024;BME280;61199;47.526;8.538;2023-04-07T02:50:23;96339.97;;;11.35;50.12
73024;BME280;61199;47.526;8.538;2023-04-07T02:52:51;96333.75;;;11.36;49.51
73024;BME280;61199;47.526;8.538;2023-04-07T02:55:17;96329.03;;;11.40;48.85
73024;BME280;61199;47.526;8.538;2023-04-07T02:57:44;96325.75;;;11.38;49.50
73024;BME280;61199;47.526;8.538;2023-04-07T03:00:10;96321.06;;;11.32;50.19
73024;BME280;61199;47.526;8.538;2023-04-07T03:02:37;96311.16;;;11.16;51.53
73024;BME280;61199;47.526;8.538;2023-04-07T03:05:04;96306.16;;;11.13;51.28
73024;BME280;61199;47.526;8.538;2023-04-07T03:07:30;96303.13;;;11.18;51.43
73024;BME280;61199;47.526;8.538;2023-04-07T03:09:57;96303.13;;;11.18;51.31
73024;BME280;61199;47.526;8.538;2023-04-07T03:12:23;96301.63;;;11.15;51.80
73024;BME280;61199;47.526;8.538;2023-04-07T03:14:49;96293.47;;;11.18;51.46
73024;BME280;61199;47.526;8.538;2023-04-07T03:17:16;96291.72;;;11.09;51.45
73024;BME280;61199;47.526;8.538;2023-04-07T03:19:42;96285.38;;;11.12;51.41
73024;BME280;61199;47.526;8.538;2023-04-07T03:22:08;96288.78;;;11.12;51.19
73024;BME280;61199;47.526;8.538;2023-04-07T03:24:35;96294.63;;;11.06;51.21
73024;BME280;61199;47.526;8.538;2023-04-07T03:27:01;96305.38;;;11.03;51.13
73024;BME280;61199;47.526;8.538;2023-04-07T03:29:28;96307.34;;;10.73;52.07
73024;BME280;61199;47.526;8.538;2023-04-07T03:31:55;96307.63;;;10.60;52.32
73024;BME280;61199;47.526;8.538;2023-04-07T03:34:22;96306.38;;;10.74;52.17
73024;BME280;61199;47.526;8.538;2023-04-07T03:36:48;96305.25;;;10.67;52.34
73024;BME280;61199;47.526;8.538;2023-04-07T03:39:14;96307.47;;;10.52;52.92
73024;BME280;61199;47.526;8.538;2023-04-07T03:41:41;96309.09;;;10.34;52.97
73024;BME280;61199;47.526;8.538;2023-04-07T03:44:08;96301.81;;;10.47;52.89
73024;BME280;61199;47.526;8.538;2023-04-07T03:46:34;96303.19;;;10.51;52.85
73024;BME280;61199;47.526;8.538;2023-04-07T03:49:00;96299.31;;;10.55;53.07
73024;BME280;61199;47.526;8.538;2023-04-07T03:51:27;96303.34;;;10.59;53.05
73024;BME280;61199;47.526;8.538;2023-04-07T03:53:53;96303.59;;;10.56;52.68
73024;BME280;61199;47.526;8.538;2023-04-07T03:56:20;96295.59;;;10.48;52.76
73024;BME280;61199;47.526;8.538;2023-04-07T03:58:47;96290.25;;;10.59;52.63
73024;BME280;61199;47.526;8.538;2023-04-07T04:01:14;96286.38;;;10.63;52.54
73024;BME280;61199;47.526;8.538;2023-04-07T04:03:41;96291.31;;;10.66;52.80
73024;BME280;61199;47.526;8.538;2023-04-07T04:06:08;96294.34;;;10.62;53.12
73024;BME280;61199;47.526;8.538;2023-04-07T04:08:34;96287.75;;;10.67;53.09
73024;BME280;61199;47.526;8.538;2023-04-07T04:11:01;96281.97;;;10.73;52.82
73024;BME280;61199;47.526;8.538;2023-04-07T04:13:27;96277.56;;;10.74;52.53
73024;BME280;61199;47.526;8.538;2023-04-07T04:15:53;96274.38;;;10.70;52.67
73024;BME280;61199;47.526;8.538;2023-04-07T04:18:20;96276.16;;;10.70;52.74
73024;BME280;61199;47.526;8.538;2023-04-07T04:20:46;96276.72;;;10.73;52.88
73024;BME280;61199;47.526;8.538;2023-04-07T04:23:14;96276.03;;;10.71;52.98
73024;BME280;61199;47.526;8.538;2023-04-07T04:25:41;96274.22;;;10.72;52.97
73024;BME280;61199;47.526;8.538;2023-04-07T04:28:07;96273.41;;;10.71;53.09
73024;BME280;61199;47.526;8.538;2023-04-07T04:30:33;96266.66;;;10.69;53.31
73024;BME280;61199;47.526;8.538;2023-04-07T04:33:00;96261.00;;;10.73;53.32
73024;BME280;61199;47.526;8.538;2023-04-07T04:35:26;96259.47;;;10.71;53.61
73024;BME280;61199;47.526;8.538;2023-04-07T04:37:53;96252.47;;;10.71;53.48
73024;BME280;61199;47.526;8.538;2023-04-07T04:40:19;96255.22;;;10.70;53.28
73024;BME280;61199;47.526;8.538;2023-04-07T04:42:46;96249.00;;;10.71;53.21
73024;BME280;61199;47.526;8.538;2023-04-07T04:45:12;96249.97;;;10.70;53.22
73024;BME280;61199;47.526;8.538;2023-04-07T04:47:39;96251.91;;;10.58;53.69
73024;BME280;61199;47.526;8.538;2023-04-07T04:50:06;96246.81;;;10.66;53.54
73024;BME280;61199;47.526;8.538;2023-04-07T04:52:32;96238.94;;;10.66;53.34
73024;BME280;61199;47.526;8.538;2023-04-07T04:54:59;96233.03;;;10.64;53.48
73024;BME280;61199;47.526;8.538;2023-04-07T04:57:26;96230.69;;;10.61;53.22
73024;BME280;61199;47.526;8.538;2023-04-07T04:59:52;96223.94;;;10.59;53.54
73024;BME280;61199;47.526;8.538;2023-04-07T05:02:18;96215.78;;;10.62;53.30
73024;BME280;61199;47.526;8.538;2023-04-07T05:04:45;96214.69;;;10.64;53.27
73024;BME280;61199;47.526;8.538;2023-04-07T05:07:12;96224.34;;;10.54;53.60
73024;BME280;61199;47.526;8.538;2023-04-07T05:09:38;96220.09;;;10.53;53.05
73024;BME280;61199;47.526;8.538;2023-04-07T05:12:05;96225.03;;;10.56;52.41
73024;BME280;61199;47.526;8.538;2023-04-07T05:14:31;96224.06;;;10.57;52.45
73024;BME280;61199;47.526;8.538;2023-04-07T05:16:58;96223.09;;;10.58;52.52
73024;BME280;61199;47.526;8.538;2023-04-07T05:19:26;96218.69;;;10.59;53.12
73024;BME280;61199;47.526;8.538;2023-04-07T05:21:54;96223.09;;;10.58;53.27
73024;BME280;61199;47.526;8.538;2023-04-07T05:24:21;96228.47;;;10.47;53.45
73024;BME280;61199;47.526;8.538;2023-04-07T05:26:47;96233.19;;;10.34;53.87
73024;BME280;61199;47.526;8.538;2023-04-07T05:29:14;96228.91;;;10.33;53.66
73024;BME280;61199;47.526;8.538;2023-04-07T05:31:40;96236.34;;;10.28;54.39
73024;BME280;61199;47.526;8.538;2023-04-07T05:34:07;96234.81;;;10.16;54.19
73024;BME280;61199;47.526;8.538;2023-04-07T05:36:34;96241.19;;;10.23;53.71
73024;BME280;61199;47.526;8.538;2023-04-07T05:39:00;96241.44;;;10.11;54.02
73024;BME280;61199;47.526;8.538;2023-04-07T05:41:26;96250.38;;;9.59;55.18
73024;BME280;61199;47.526;8.538;2023-04-07T05:43:53;96253.06;;;9.48;55.86
73024;BME280;61199;47.526;8.538;2023-04-07T05:46:19;96244.88;;;9.02;56.98
73024;BME280;61199;47.526;8.538;2023-04-07T05:48:46;96242.25;;;9.23;57.02
73024;BME280;61199;47.526;8.538;2023-04-07T05:51:12;96239.06;;;9.49;56.37
73024;BME280;61199;47.526;8.538;2023-04-07T05:53:38;96229.59;;;9.67;55.64
73024;BME280;61199;47.526;8.538;2023-04-07T05:56:05;96234.19;;;9.84;55.46
73024;BME280;61199;47.526;8.538;2023-04-07T05:58:32;96235.59;;;9.88;54.98
73024;BME280;61199;47.526;8.538;2023-04-07T06:00:58;96241.16;;;10.04;54.58
73024;BME280;61199;47.526;8.538;2023-04-07T06:03:25;96238.94;;;10.09;54.96
73024;BME280;61199;47.526;8.538;2023-04-07T06:05:51;96230.69;;;10.14;54.89
73024;BME280;61199;47.526;8.538;2023-04-07T06:08:18;96236.47;;;10.08;55.05
73024;BME280;61199;47.526;8.538;2023-04-07T06:10:44;96234.00;;;10.06;54.85
73024;BME280;61199;47.526;8.538;2023-04-07T06:13:11;96229.03;;;10.13;53.96
73024;BME280;61199;47.526;8.538;2023-04-07T06:15:38;96229.56;;;10.07;54.21
73024;BME280;61199;47.526;8.538;2023-04-07T06:18:04;96237.97;;;10.10;54.38
73024;BME280;61199;47.526;8.538;2023-04-07T06:20:31;96235.94;;;10.04;54.81
73024;BME280;61199;47.526;8.538;2023-04-07T06:22:57;96233.03;;;10.07;54.61
73024;BME280;61199;47.526;8.538;2023-04-07T06:25:24;96244.47;;;10.06;54.54
73024;BME280;61199;47.526;8.538;2023-04-07T06:27:50;96239.63;;;10.11;54.52
73024;BME280;61199;47.526;8.538;2023-04-07T06:30:17;96236.75;;;10.05;54.92
73024;BME280;61199;47.526;8.538;2023-04-07T06:32:43;96245.00;;;9.61;57.43
73024;BME280;61199;47.526;8.538;2023-04-07T06:35:09;96244.25;;;9.89;56.60
73024;BME280;61199;47.526;8.538;2023-04-07T06:37:36;96241.88;;;9.76;57.04
73024;BME280;61199;47.526;8.538;2023-04-07T06:40:06;96243.06;;;10.02;56.75
73024;BME280;61199;47.526;8.538;2023-04-07T06:42:32;96251.94;;;9.81;57.13
73024;BME280;61199;47.526;8.538;2023-04-07T06:44:58;96242.34;;;10.00;56.69
73024;BME280;61199;47.526;8.538;2023-04-07T06:47:25;96246.06;;;9.98;57.55
73024;BME280;61199;47.526;8.538;2023-04-07T06:49:51;96239.97;;;9.88;57.55
73024;BME280;61199;47.526;8.538;2023-04-07T06:52:18;96241.66;;;9.98;57.62
73024;BME280;61199;47.526;8.538;2023-04-07T06:54:44;96235.03;;;9.94;57.69
73024;BME280;61199;47.526;8.538;2023-04-07T06:57:11;96238.06;;;9.99;57.29
73024;BME280;61199;47.526;8.538;2023-04-07T06:59:37;96246.78;;;10.09;56.83
73024;BME280;61199;47.526;8.538;2023-04-07T07:02:04;96249.28;;;10.20;56.24
73024;BME280;61199;47.526;8.538;2023-04-07T07:04:35;96242.69;;;10.35;55.84
73024;BME280;61199;47.526;8.538;2023-04-07T07:07:02;96250.00;;;10.41;55.71
73024;BME280;61199;47.526;8.538;2023-04-07T07:09:28;96247.09;;;10.44;55.70
73024;BME280;61199;47.526;8.538;2023-04-07T07:11:55;96245.97;;;10.56;55.25
73024;BME280;61199;47.526;8.538;2023-04-07T07:14:21;96241.72;;;10.65;55.00
73024;BME280;61199;47.526;8.538;2023-04-07T07:16:47;96244.91;;;10.68;54.89
73024;BME280;61199;47.526;8.538;2023-04-07T07:19:14;96238.66;;;10.79;54.01
73024;BME280;61199;47.526;8.538;2023-04-07T07:21:40;96242.78;;;10.81;53.69
73024;BME280;61199;47.526;8.538;2023-04-07T07:24:07;96244.56;;;10.81;53.77
73024;BME280;61199;47.526;8.538;2023-04-07T07:26:33;96241.94;;;10.90;53.33
73024;BME280;61199;47.526;8.538;2023-04-07T07:28:59;96239.47;;;10.89;53.31
73024;BME280;61199;47.526;8.538;2023-04-07T07:31:26;96240.72;;;10.75;53.20
73024;BME280;61199;47.526;8.538;2023-04-07T07:33:52;96238.91;;;10.85;53.36
73024;BME280;61199;47.526;8.538;2023-04-07T07:36:19;96241.28;;;10.88;53.21
73024;BME280;61199;47.526;8.538;2023-04-07T07:38:45;96242.75;;;11.00;52.65
73024;BME280;61199;47.526;8.538;2023-04-07T07:41:11;96246.50;;;10.88;53.49
73024;BME280;61199;47.526;8.538;2023-04-07T07:43:38;96244.28;;;10.93;53.57
73024;BME280;61199;47.526;8.538;2023-04-07T07:46:04;96242.03;;;11.08;53.47
73024;BME280;61199;47.526;8.538;2023-04-07T07:48:31;96236.38;;;11.12;53.44
73024;BME280;61199;47.526;8.538;2023-04-07T07:50:57;96238.56;;;11.17;52.73
73024;BME280;61199;47.526;8.538;2023-04-07T07:53:23;96243.78;;;11.26;52.45
73024;BME280;61199;47.526;8.538;2023-04-07T07:55:50;96242.69;;;11.19;52.74
73024;BME280;61199;47.526;8.538;2023-04-07T07:58:16;96246.84;;;11.22;52.49
73024;BME280;61199;47.526;8.538;2023-04-07T08:00:43;96258.25;;;11.30;52.33
73024;BME280;61199;47.526;8.538;2023-04-07T08:03:09;96259.91;;;11.31;52.17
73024;BME280;61199;47.526;8.538;2023-04-07T08:05:36;96259.09;;;11.21;52.30
73024;BME280;61199;47.526;8.538;2023-04-07T08:08:02;96261.31;;;11.26;52.30
73024;BME280;61199;47.526;8.538;2023-04-07T08:10:28;96261.19;;;11.18;52.10
73024;BME280;61199;47.526;8.538;2023-04-07T08:12:55;96266.50;;;10.89;53.96
73024;BME280;61199;47.526;8.538;2023-04-07T08:15:21;96271.50;;;10.54;55.71
73024;BME280;61199;47.526;8.538;2023-04-07T08:17:48;96284.03;;;10.22;57.49
73024;BME280;61199;47.526;8.538;2023-04-07T08:20:14;96277.25;;;10.29;56.81
73024;BME280;61199;47.526;8.538;2023-04-07T08:22:41;96291.09;;;9.92;57.21
73024;BME280;61199;47.526;8.538;2023-04-07T08:25:08;96294.19;;;10.06;57.16
73024;BME280;61199;47.526;8.538;2023-04-07T08:27:34;96285.53;;;10.15;57.40
73024;BME280;61199;47.526;8.538;2023-04-07T08:30:03;96289.66;;;10.18;57.47
73024;BME280;61199;47.526;8.538;2023-04-07T08:32:42;96297.13;;;10.41;57.10
73024;BME280;61199;47.526;8.538;2023-04-07T08:35:09;96294.94;;;10.56;56.32
73024;BME280;61199;47.526;8.538;2023-04-07T08:37:39;96301.63;;;10.20;57.50
73024;BME280;61199;47.526;8.538;2023-04-07T08:40:06;96292.97;;;10.48;56.71
73024;BME280;61199;47.526;8.538;2023-04-07T08:42:33;96299.88;;;10.49;56.44
73024;BME280;61199;47.526;8.538;2023-04-07T08:45:04;96303.75;;;10.64;55.91
73024;BME280;61199;47.526;8.538;2023-04-07T08:47:32;96302.91;;;10.73;55.78
73024;BME280;61199;47.526;8.538;2023-04-07T08:50:01;96310.63;;;10.84;55.17
73024;BME280;61199;47.526;8.538;2023-04-07T08:52:54;96305.94;;;10.88;55.24
73024;BME280;61199;47.526;8.538;2023-04-07T08:55:22;96312.69;;;10.90;55.18
73024;BME280;61199;47.526;8.538;2023-04-07T08:57:48;96320.84;;;11.06;54.69
73024;BME280;61199;47.526;8.538;2023-04-07T09:00:16;96324.13;;;10.99;55.43
73024;BME280;61199;47.526;8.538;2023-04-07T09:02:43;96319.72;;;10.99;54.88
73024;BME280;61199;47.526;8.538;2023-04-07T09:05:11;96321.38;;;10.91;54.79
73024;BME280;61199;47.526;8.538;2023-04-07T09:07:40;96321.69;;;10.59;55.32
73024;BME280;61199;47.526;8.538;2023-04-07T09:10:08;96322.47;;;10.41;56.26
73024;BME280;61199;47.526;8.538;2023-04-07T09:12:35;96325.66;;;10.44;55.47
73024;BME280;61199;47.526;8.538;2023-04-07T09:15:02;96323.41;;;10.30;55.83
73024;BME280;61199;47.526;8.538;2023-04-07T09:17:29;96327.09;;;10.09;56.38
73024;BME280;61199;47.526;8.538;2023-04-07T09:19:57;96324.81;;;9.95;56.62
73024;BME280;61199;47.526;8.538;2023-04-07T09:22:40;96338.47;;;9.98;56.18
73024;BME280;61199;47.526;8.538;2023-04-07T09:25:18;96340.56;;;9.44;58.18
73024;BME280;61199;47.526;8.538;2023-04-07T09:27:58;96340.09;;;9.30;59.45
73024;BME280;61199;47.526;8.538;2023-04-07T09:30:27;96343.38;;;9.52;59.57
73024;BME280;61199;47.526;8.538;2023-04-07T09:32:54;96348.22;;;9.36;61.61
73024;BME280;61199;47.526;8.538;2023-04-07T09:35:21;96342.63;;;9.20;62.89
73024;BME280;61199;47.526;8.538;2023-04-07T09:38:08;96343.19;;;9.24;63.77
73024;BME280;61199;47.526;8.538;2023-04-07T09:40:35;96349.84;;;9.28;64.24
73024;BME280;61199;47.526;8.538;2023-04-07T09:43:03;96344.91;;;8.93;65.86
73024;BME280;61199;47.526;8.538;2023-04-07T09:45:31;96351.28;;;9.00;66.02
73024;BME280;61199;47.526;8.538;2023-04-07T09:48:06;96347.09;;;8.88;66.19
73024;BME280;61199;47.526;8.538;2023-04-07T09:50:39;96355.88;;;8.87;66.66
73024;BME280;61199;47.526;8.538;2023-04-07T09:53:06;96352.97;;;8.70;67.20
73024;BME280;61199;47.526;8.538;2023-04-07T09:55:34;96352.16;;;8.69;67.64
73024;BME280;61199;47.526;8.538;2023-04-07T09:58:03;96350.88;;;8.84;67.08
73024;BME280;61199;47.526;8.538;2023-04-07T10:00:29;96347.09;;;8.88;67.05
73024;BME280;61199;47.526;8.538;2023-04-07T10:02:56;96350.41;;;8.90;66.82
73024;BME280;61199;47.526;8.538;2023-04-07T10:05:24;96358.28;;;8.79;66.65
73024;BME280;61199;47.526;8.538;2023-04-07T10:07:50;96359.44;;;8.86;66.62
73024;BME280;61199;47.526;8.538;2023-04-07T10:10:17;96357.72;;;8.76;67.28
73024;BME280;61199;47.526;8.538;2023-04-07T10:12:44;96369.91;;;8.86;66.88
73024;BME280;61199;47.526;8.538;2023-04-07T10:15:12;96360.44;;;8.74;67.48
73024;BME280;61199;47.526;8.538;2023-04-07T10:17:44;96368.81;;;8.57;67.54
73024;BME280;61199;47.526;8.538;2023-04-07T10:20:17;96366.91;;;8.60;67.85
73024;BME280;61199;47.526;8.538;2023-04-07T10:22:45;96368.47;;;8.51;67.74
73024;BME280;61199;47.526;8.538;2023-04-07T10:25:16;96369.06;;;8.55;68.06
73024;BME280;61199;47.526;8.538;2023-04-07T10:27:59;96377.59;;;8.57;67.84
73024;BME280;61199;47.526;8.538;2023-04-07T10:30:31;96374.22;;;8.76;67.28
73024;BME280;61199;47.526;8.538;2023-04-07T10:32:58;96373.28;;;8.66;67.43
73024;BME280;61199;47.526;8.538;2023-04-07T10:35:25;96382.97;;;8.44;68.69
73024;BME280;61199;47.526;8.538;2023-04-07T10:40:34;96380.78;;;8.91;67.31
73024;BME280;61199;47.526;8.538;2023-04-07T10:43:01;96381.44;;;9.04;66.76
73024;BME280;61199;47.526;8.538;2023-04-07T10:48:19;96384.38;;;8.48;66.98
73024;BME280;61199;47.526;8.538;2023-04-07T10:53:32;96390.69;;;8.46;68.09
73024;BME280;61199;47.526;8.538;2023-04-07T10:55:59;96384.38;;;8.48;68.05
73024;BME280;61199;47.526;8.538;2023-04-07T10:58:30;96390.84;;;8.64;67.68
73024;BME280;61199;47.526;8.538;2023-04-07T11:03:28;96390.41;;;8.49;68.32
73024;BME280;61199;47.526;8.538;2023-04-07T11:06:04;96388.56;;;8.71;67.06
73024;BME280;61199;47.526;8.538;2023-04-07T11:08:35;96386.16;;;8.59;67.44
73024;BME280;61199;47.526;8.538;2023-04-07T11:11:03;96392.78;;;8.63;67.45
73024;BME280;61199;47.526;8.538;2023-04-07T11:13:46;96389.31;;;8.31;67.98
73024;BME280;61199;47.526;8.538;2023-04-07T11:16:15;96390.00;;;8.33;68.43
73024;BME280;61199;47.526;8.538;2023-04-07T11:18:42;96391.19;;;8.29;68.49
73024;BME280;61199;47.526;8.538;2023-04-07T11:21:09;96393.09;;;8.16;69.15
73024;BME280;61199;47.526;8.538;2023-04-07T11:23:38;96399.50;;;8.23;68.08
73024;BME280;61199;47.526;8.538;2023-04-07T11:26:07;96397.25;;;8.18;68.48
73024;BME280;61199;47.526;8.538;2023-04-07T11:28:36;96406.81;;;8.40;67.90
73024;BME280;61199;47.526;8.538;2023-04-07T11:31:10;96406.13;;;8.38;67.57
73024;BME280;61199;47.526;8.538;2023-04-07T11:33:36;96403.78;;;8.24;68.29
73024;BME280;61199;47.526;8.538;2023-04-07T11:36:05;96412.78;;;8.31;67.55
73024;BME280;61199;47.526;8.538;2023-04-07T11:38:36;96402.56;;;8.17;67.60
73024;BME280;61199;47.526;8.538;2023-04-07T11:41:15;96412.78;;;8.20;67.81
73024;BME280;61199;47.526;8.538;2023-04-07T11:43:41;96412.03;;;8.40;67.26
73024;BME280;61199;47.526;8.538;2023-04-07T11:46:10;96417.25;;;8.40;67.17
73024;BME280;61199;47.526;8.538;2023-04-07T11:48:41;96429.16;;;8.22;67.35
73024;BME280;61199;47.526;8.538;2023-04-07T11:51:19;96427.69;;;8.18;67.95
73024;BME280;61199;47.526;8.538;2023-04-07T11:53:46;96437.78;;;8.11;68.26
73024;BME280;61199;47.526;8.538;2023-04-07T11:56:15;96435.78;;;8.04;68.20
73024;BME280;61199;47.526;8.538;2023-04-07T11:58:54;96441.69;;;7.73;68.60
73024;BME280;61199;47.526;8.538;2023-04-07T12:01:21;96441.50;;;7.41;69.84
73024;BME280;61199;47.526;8.538;2023-04-07T12:06:33;96444.09;;;7.41;71.01
73024;BME280;61199;47.526;8.538;2023-04-07T12:09:23;96448.44;;;7.30;71.11
73024;BME280;61199;47.526;8.538;2023-04-07T12:11:51;96444.53;;;7.24;72.16
73024;BME280;61199;47.526;8.538;2023-04-07T12:14:18;96447.88;;;7.26;72.46
73024;BME280;61199;47.526;8.538;2023-04-07T12:16:45;96459.88;;;7.40;72.95
73024;BME280;61199;47.526;8.538;2023-04-07T12:19:12;96459.16;;;7.03;73.37
73024;BME280;61199;47.526;8.538;2023-04-07T12:21:38;96456.63;;;7.02;74.23
73024;BME280;61199;47.526;8.538;2023-04-07T12:24:04;96453.13;;;7.03;74.40
73024;BME280;61199;47.526;8.538;2023-04-07T12:26:31;96455.13;;;6.99;73.88
73024;BME280;61199;47.526;8.538;2023-04-07T12:28:57;96446.63;;;7.08;73.06
73024;BME280;61199;47.526;8.538;2023-04-07T12:31:30;96451.63;;;7.22;73.06
73024;BME280;61199;47.526;8.538;2023-04-07T12:33:58;96462.41;;;7.29;73.98
73024;BME280;61199;47.526;8.538;2023-04-07T12:36:25;96455.34;;;7.31;74.09
73024;BME280;61199;47.526;8.538;2023-04-07T12:38:53;96458.31;;;7.37;73.25
73024;BME280;61199;47.526;8.538;2023-04-07T12:41:19;96451.03;;;7.19;72.84
73024;BME280;61199;47.526;8.538;2023-04-07T12:43:46;96448.75;;;7.14;73.10
73024;BME280;61199;47.526;8.538;2023-04-07T12:46:12;96450.72;;;7.34;73.43
73024;BME280;61199;47.526;8.538;2023-04-07T12:48:39;96453.50;;;7.55;74.06
73024;BME280;61199;47.526;8.538;2023-04-07T12:51:05;96445.31;;;7.59;73.72
73024;BME280;61199;47.526;8.538;2023-04-07T12:53:31;96440.72;;;7.74;73.19
73024;BME280;61199;47.526;8.538;2023-04-07T12:55:58;96446.97;;;7.60;73.36
73024;BME280;61199;47.526;8.538;2023-04-07T12:58:24;96444.72;;;7.56;74.22
73024;BME280;61199;47.526;8.538;2023-04-07T13:00:52;96443.56;;;7.71;73.71
73024;BME280;61199;47.526;8.538;2023-04-07T13:03:18;96446.84;;;7.40;74.34
73024;BME280;61199;47.526;8.538;2023-04-07T13:05:45;96445.47;;;7.23;74.57
73024;BME280;61199;47.526;8.538;2023-04-07T13:08:12;96437.75;;;7.11;75.65
73024;BME280;61199;47.526;8.538;2023-04-07T13:10:38;96440.28;;;7.34;76.39
73024;BME280;61199;47.526;8.538;2023-04-07T13:13:05;96446.88;;;7.51;76.33
73024;BME280;61199;47.526;8.538;2023-04-07T13:15:31;96440.47;;;7.66;75.57
73024;BME280;61199;47.526;8.538;2023-04-07T13:17:57;96440.16;;;7.81;74.73
73024;BME280;61199;47.526;8.538;2023-04-07T13:20:24;96443.13;;;7.99;73.86
73024;BME280;61199;47.526;8.538;2023-04-07T13:22:53;96442.97;;;7.67;73.42
73024;BME280;61199;47.526;8.538;2023-04-07T13:25:32;96447.34;;;7.56;72.71
73024;BME280;61199;47.526;8.538;2023-04-07T13:27:59;96439.06;;;7.51;73.74
73024;BME280;61199;47.526;8.538;2023-04-07T13:30:25;96437.41;;;7.61;73.88